Disclaimer

Please do not use the information listed here in-flight or in-navigation, as they are not provided to us by the airports but are provided by volunteers, so they might be outdated.

Search


Regions


Airport information page

Radio informations:
INFO - 118.8 MHz
REYKJAVIK ACC - 119.7 MHz

Airport informations:
Latitude: 66° 03' 29.00" N
Longitude: 023° 08' 07.00" W
Elevation: 8 feet - 2 meters
Operating hours: N/A
Operating agency: Civil government, landing fees and diplomatic clearance may be required
Timezone: UTC 0
Fuel: Jet A1, without icing nhibitor.

100/130 MIL Spec, low lead, aviation gasoline (BLUE)

Runway information:
08/26 - 4593 x 98 feet< - >1400 x 30 meters

Recent METARs:
BIIS 181650Z 22010KT 9999 BKN035 OVC045 08/02 Q1014
BIIS 181650Z 22010KT 9999 BKN035 OVC045 08/02 Q1014
BIIS 181650Z 22010KT 9999 BKN035 OVC045 08/02 Q1014

Airport on the map: